sensor_id;sensor_type;location;lat;lon;timestamp;P1;durP1;ratioP1;P2;durP2;ratioP2
47860;SDS011;33620;52.340;5.984;2023-07-13T00:00:46;13.75;;;3.35;;
47860;SDS011;33620;52.340;5.984;2023-07-13T00:03:11;15.20;;;3.10;;
47860;SDS011;33620;52.340;5.984;2023-07-13T00:05:38;12.40;;;3.28;;
47860;SDS011;33620;52.340;5.984;2023-07-13T00:08:04;16.60;;;3.72;;
47860;SDS011;33620;52.340;5.984;2023-07-13T00:10:30;14.93;;;3.35;;
47860;SDS011;33620;52.340;5.984;2023-07-13T00:12:56;12.10;;;3.03;;
47860;SDS011;33620;52.340;5.984;2023-07-13T00:15:25;14.43;;;3.10;;
47860;SDS011;33620;52.340;5.984;2023-07-13T00:17:55;15.48;;;4.00;;
47860;SDS011;33620;52.340;5.984;2023-07-13T00:20:21;13.07;;;3.95;;
47860;SDS011;33620;52.340;5.984;2023-07-13T00:22:49;13.10;;;3.20;;
47860;SDS011;33620;52.340;5.984;2023-07-13T00:25:18;17.00;;;3.75;;
47860;SDS011;33620;52.340;5.984;2023-07-13T00:27:47;15.43;;;4.22;;
47860;SDS011;33620;52.340;5.984;2023-07-13T00:30:14;15.00;;;3.88;;
47860;SDS011;33620;52.340;5.984;2023-07-13T00:32:40;15.70;;;3.55;;
47860;SDS011;33620;52.340;5.984;2023-07-13T00:35:05;16.33;;;4.10;;
47860;SDS011;33620;52.340;5.984;2023-07-13T00:37:32;16.00;;;3.42;;
47860;SDS011;33620;52.340;5.984;2023-07-13T00:39:58;15.48;;;3.40;;
47860;SDS011;33620;52.340;5.984;2023-07-13T00:42:24;15.52;;;4.28;;
47860;SDS011;33620;52.340;5.984;2023-07-13T00:47:50;16.10;;;3.95;;
47860;SDS011;33620;52.340;5.984;2023-07-13T00:50:16;14.60;;;4.25;;
47860;SDS011;33620;52.340;5.984;2023-07-13T00:52:44;16.17;;;3.35;;
47860;SDS011;33620;52.340;5.984;2023-07-13T00:55:12;19.23;;;4.10;;
47860;SDS011;33620;52.340;5.984;2023-07-13T00:57:39;14.40;;;3.45;;
47860;SDS011;33620;52.340;5.984;2023-07-13T01:00:06;14.40;;;4.13;;
47860;SDS011;33620;52.340;5.984;2023-07-13T01:02:33;18.52;;;3.70;;
47860;SDS011;33620;52.340;5.984;2023-07-13T01:05:00;17.05;;;3.60;;
47860;SDS011;33620;52.340;5.984;2023-07-13T01:07:26;16.52;;;4.10;;
47860;SDS011;33620;52.340;5.984;2023-07-13T01:09:52;14.13;;;3.03;;
47860;SDS011;33620;52.340;5.984;2023-07-13T01:12:17;16.98;;;4.18;;
47860;SDS011;33620;52.340;5.984;2023-07-13T01:14:43;13.45;;;3.30;;
47860;SDS011;33620;52.340;5.984;2023-07-13T01:17:09;19.27;;;3.83;;
47860;SDS011;33620;52.340;5.984;2023-07-13T01:19:42;10.90;;;3.50;;
47860;SDS011;33620;52.340;5.984;2023-07-13T01:22:10;13.57;;;3.85;;
47860;SDS011;33620;52.340;5.984;2023-07-13T01:24:38;13.98;;;3.67;;
47860;SDS011;33620;52.340;5.984;2023-07-13T01:27:05;14.55;;;3.08;;
47860;SDS011;33620;52.340;5.984;2023-07-13T01:29:32;13.07;;;3.83;;
47860;SDS011;33620;52.340;5.984;2023-07-13T01:32:00;14.20;;;3.60;;
47860;SDS011;33620;52.340;5.984;2023-07-13T01:34:26;14.32;;;4.05;;
47860;SDS011;33620;52.340;5.984;2023-07-13T01:36:52;13.02;;;3.60;;
47860;SDS011;33620;52.340;5.984;2023-07-13T01:39:20;12.00;;;3.92;;
47860;SDS011;33620;52.340;5.984;2023-07-13T01:41:46;13.85;;;3.30;;
47860;SDS011;33620;52.340;5.984;2023-07-13T01:44:12;14.20;;;3.70;;
47860;SDS011;33620;52.340;5.984;2023-07-13T01:46:37;13.95;;;3.53;;
47860;SDS011;33620;52.340;5.984;2023-07-13T01:49:03;14.05;;;3.35;;
47860;SDS011;33620;52.340;5.984;2023-07-13T01:51:28;15.23;;;3.97;;
47860;SDS011;33620;52.340;5.984;2023-07-13T01:53:54;17.90;;;3.80;;
47860;SDS011;33620;52.340;5.984;2023-07-13T01:56:20;11.68;;;3.22;;
47860;SDS011;33620;52.340;5.984;2023-07-13T01:58:45;13.60;;;3.50;;
47860;SDS011;33620;52.340;5.984;2023-07-13T02:01:11;15.05;;;3.83;;
47860;SDS011;33620;52.340;5.984;2023-07-13T02:03:36;12.77;;;3.17;;
47860;SDS011;33620;52.340;5.984;2023-07-13T02:06:02;13.95;;;3.55;;
47860;SDS011;33620;52.340;5.984;2023-07-13T02:08:28;14.68;;;3.50;;
47860;SDS011;33620;52.340;5.984;2023-07-13T02:10:53;14.70;;;3.85;;
47860;SDS011;33620;52.340;5.984;2023-07-13T02:13:19;10.73;;;3.22;;
47860;SDS011;33620;52.340;5.984;2023-07-13T02:15:44;12.40;;;4.07;;
47860;SDS011;33620;52.340;5.984;2023-07-13T02:18:10;12.77;;;4.15;;
47860;SDS011;33620;52.340;5.984;2023-07-13T02:20:35;16.25;;;3.72;;
47860;SDS011;33620;52.340;5.984;2023-07-13T02:23:01;10.95;;;3.42;;
47860;SDS011;33620;52.340;5.984;2023-07-13T02:25:26;13.18;;;4.43;;
47860;SDS011;33620;52.340;5.984;2023-07-13T02:27:52;19.70;;;3.65;;
47860;SDS011;33620;52.340;5.984;2023-07-13T02:30:17;9.82;;;3.30;;
47860;SDS011;33620;52.340;5.984;2023-07-13T02:32:43;13.13;;;3.65;;
47860;SDS011;33620;52.340;5.984;2023-07-13T02:35:09;19.55;;;4.57;;
47860;SDS011;33620;52.340;5.984;2023-07-13T02:37:35;14.73;;;3.75;;
47860;SDS011;33620;52.340;5.984;2023-07-13T02:40:01;15.18;;;4.05;;
47860;SDS011;33620;52.340;5.984;2023-07-13T02:42:33;17.88;;;3.53;;
47860;SDS011;33620;52.340;5.984;2023-07-13T02:44:58;10.73;;;3.30;;
47860;SDS011;33620;52.340;5.984;2023-07-13T02:47:24;10.65;;;3.08;;
47860;SDS011;33620;52.340;5.984;2023-07-13T02:49:49;12.60;;;3.28;;
47860;SDS011;33620;52.340;5.984;2023-07-13T02:52:15;14.43;;;3.75;;
47860;SDS011;33620;52.340;5.984;2023-07-13T02:54:41;12.68;;;3.53;;
47860;SDS011;33620;52.340;5.984;2023-07-13T02:57:06;15.75;;;3.60;;
47860;SDS011;33620;52.340;5.984;2023-07-13T02:59:32;13.32;;;3.90;;
47860;SDS011;33620;52.340;5.984;2023-07-13T03:01:57;15.38;;;3.75;;
47860;SDS011;33620;52.340;5.984;2023-07-13T03:04:22;14.45;;;3.92;;
47860;SDS011;33620;52.340;5.984;2023-07-13T03:06:48;18.95;;;4.15;;
47860;SDS011;33620;52.340;5.984;2023-07-13T03:09:13;15.38;;;4.57;;
47860;SDS011;33620;52.340;5.984;2023-07-13T03:11:39;16.55;;;3.55;;
47860;SDS011;33620;52.340;5.984;2023-07-13T03:14:05;14.10;;;4.47;;
47860;SDS011;33620;52.340;5.984;2023-07-13T03:16:30;13.05;;;3.35;;
47860;SDS011;33620;52.340;5.984;2023-07-13T03:18:55;16.20;;;4.20;;
47860;SDS011;33620;52.340;5.984;2023-07-13T03:21:21;19.23;;;4.20;;
47860;SDS011;33620;52.340;5.984;2023-07-13T03:23:47;11.52;;;3.47;;
47860;SDS011;33620;52.340;5.984;2023-07-13T03:26:14;15.75;;;4.03;;
47860;SDS011;33620;52.340;5.984;2023-07-13T03:28:44;15.23;;;4.20;;
47860;SDS011;33620;52.340;5.984;2023-07-13T03:31:15;16.98;;;3.65;;
47860;SDS011;33620;52.340;5.984;2023-07-13T03:33:46;16.50;;;4.43;;
47860;SDS011;33620;52.340;5.984;2023-07-13T03:36:14;15.18;;;4.05;;
47860;SDS011;33620;52.340;5.984;2023-07-13T03:38:48;17.40;;;4.47;;
47860;SDS011;33620;52.340;5.984;2023-07-13T03:41:15;15.98;;;4.68;;
47860;SDS011;33620;52.340;5.984;2023-07-13T03:43:41;13.43;;;4.10;;
47860;SDS011;33620;52.340;5.984;2023-07-13T03:46:07;17.17;;;4.20;;
47860;SDS011;33620;52.340;5.984;2023-07-13T03:48:33;17.45;;;4.40;;
47860;SDS011;33620;52.340;5.984;2023-07-13T03:50:58;17.63;;;4.57;;
47860;SDS011;33620;52.340;5.984;2023-07-13T03:53:24;19.17;;;4.07;;
47860;SDS011;33620;52.340;5.984;2023-07-13T03:55:49;13.30;;;4.60;;
47860;SDS011;33620;52.340;5.984;2023-07-13T04:01:03;18.75;;;4.72;;
47860;SDS011;33620;52.340;5.984;2023-07-13T04:03:30;19.98;;;4.90;;
47860;SDS011;33620;52.340;5.984;2023-07-13T04:05:57;18.48;;;5.13;;
47860;SDS011;33620;52.340;5.984;2023-07-13T04:08:28;17.30;;;4.65;;
47860;SDS011;33620;52.340;5.984;2023-07-13T04:10:55;17.55;;;4.75;;
47860;SDS011;33620;52.340;5.984;2023-07-13T04:13:21;20.52;;;5.97;;
47860;SDS011;33620;52.340;5.984;2023-07-13T04:15:47;17.52;;;4.30;;
47860;SDS011;33620;52.340;5.984;2023-07-13T04:18:13;17.05;;;4.70;;
47860;SDS011;33620;52.340;5.984;2023-07-13T04:20:38;21.05;;;5.38;;
47860;SDS011;33620;52.340;5.984;2023-07-13T04:23:04;17.83;;;4.72;;
47860;SDS011;33620;52.340;5.984;2023-07-13T04:25:29;17.42;;;4.82;;
47860;SDS011;33620;52.340;5.984;2023-07-13T04:27:55;19.30;;;4.93;;
47860;SDS011;33620;52.340;5.984;2023-07-13T04:30:21;19.63;;;4.57;;
47860;SDS011;33620;52.340;5.984;2023-07-13T04:32:46;15.35;;;4.50;;
47860;SDS011;33620;52.340;5.984;2023-07-13T04:35:12;18.52;;;4.70;;
47860;SDS011;33620;52.340;5.984;2023-07-13T04:37:39;21.60;;;5.28;;
47860;SDS011;33620;52.340;5.984;2023-07-13T04:40:05;18.98;;;5.10;;
47860;SDS011;33620;52.340;5.984;2023-07-13T04:42:31;22.95;;;4.60;;
47860;SDS011;33620;52.340;5.984;2023-07-13T04:44:56;19.95;;;4.65;;
47860;SDS011;33620;52.340;5.984;2023-07-13T04:47:22;16.17;;;4.68;;
47860;SDS011;33620;52.340;5.984;2023-07-13T04:49:48;13.57;;;4.38;;
47860;SDS011;33620;52.340;5.984;2023-07-13T04:52:13;17.33;;;5.00;;
47860;SDS011;33620;52.340;5.984;2023-07-13T04:54:38;15.38;;;5.50;;
47860;SDS011;33620;52.340;5.984;2023-07-13T04:57:04;14.57;;;4.47;;
47860;SDS011;33620;52.340;5.984;2023-07-13T04:59:32;16.15;;;4.35;;
47860;SDS011;33620;52.340;5.984;2023-07-13T05:01:58;20.02;;;5.40;;
47860;SDS011;33620;52.340;5.984;2023-07-13T05:04:23;22.42;;;5.30;;
47860;SDS011;33620;52.340;5.984;2023-07-13T05:06:49;19.00;;;5.15;;
47860;SDS011;33620;52.340;5.984;2023-07-13T05:09:14;21.15;;;5.20;;
47860;SDS011;33620;52.340;5.984;2023-07-13T05:11:40;20.27;;;5.13;;
47860;SDS011;33620;52.340;5.984;2023-07-13T05:14:05;18.75;;;4.80;;
47860;SDS011;33620;52.340;5.984;2023-07-13T05:16:31;21.08;;;5.57;;
47860;SDS011;33620;52.340;5.984;2023-07-13T05:18:57;23.70;;;5.93;;
47860;SDS011;33620;52.340;5.984;2023-07-13T05:21:22;21.25;;;5.40;;
47860;SDS011;33620;52.340;5.984;2023-07-13T05:23:48;18.55;;;4.70;;
47860;SDS011;33620;52.340;5.984;2023-07-13T05:26:15;21.77;;;5.20;;
47860;SDS011;33620;52.340;5.984;2023-07-13T05:28:40;19.58;;;5.55;;
47860;SDS011;33620;52.340;5.984;2023-07-13T05:31:07;20.33;;;5.40;;
47860;SDS011;33620;52.340;5.984;2023-07-13T05:33:34;24.55;;;6.88;;
47860;SDS011;33620;52.340;5.984;2023-07-13T05:35:59;18.00;;;5.90;;
47860;SDS011;33620;52.340;5.984;2023-07-13T05:38:26;21.85;;;6.57;;
47860;SDS011;33620;52.340;5.984;2023-07-13T05:40:53;22.23;;;6.53;;
47860;SDS011;33620;52.340;5.984;2023-07-13T05:43:20;21.50;;;6.53;;
47860;SDS011;33620;52.340;5.984;2023-07-13T05:45:45;20.55;;;7.68;;
47860;SDS011;33620;52.340;5.984;2023-07-13T05:48:11;26.90;;;8.95;;
47860;SDS011;33620;52.340;5.984;2023-07-13T05:50:36;22.13;;;8.05;;
47860;SDS011;33620;52.340;5.984;2023-07-13T05:53:02;28.55;;;8.55;;
47860;SDS011;33620;52.340;5.984;2023-07-13T05:55:27;25.83;;;8.38;;
47860;SDS011;33620;52.340;5.984;2023-07-13T05:57:53;21.63;;;9.05;;
47860;SDS011;33620;52.340;5.984;2023-07-13T06:00:18;29.77;;;10.35;;
47860;SDS011;33620;52.340;5.984;2023-07-13T06:02:44;28.17;;;10.55;;
47860;SDS011;33620;52.340;5.984;2023-07-13T06:05:10;31.75;;;11.05;;
47860;SDS011;33620;52.340;5.984;2023-07-13T06:07:35;26.02;;;10.75;;
47860;SDS011;33620;52.340;5.984;2023-07-13T06:10:01;26.77;;;10.20;;
47860;SDS011;33620;52.340;5.984;2023-07-13T06:12:26;27.00;;;10.63;;
47860;SDS011;33620;52.340;5.984;2023-07-13T06:14:52;31.85;;;11.73;;
47860;SDS011;33620;52.340;5.984;2023-07-13T06:17:17;25.48;;;9.88;;
47860;SDS011;33620;52.340;5.984;2023-07-13T06:19:43;26.30;;;9.95;;
47860;SDS011;33620;52.340;5.984;2023-07-13T06:22:09;23.38;;;10.73;;
47860;SDS011;33620;52.340;5.984;2023-07-13T06:24:34;29.42;;;12.75;;
47860;SDS011;33620;52.340;5.984;2023-07-13T06:27:00;31.17;;;11.73;;
47860;SDS011;33620;52.340;5.984;2023-07-13T06:29:25;29.38;;;11.57;;
47860;SDS011;33620;52.340;5.984;2023-07-13T06:31:51;30.55;;;11.73;;
47860;SDS011;33620;52.340;5.984;2023-07-13T06:34:16;24.20;;;11.52;;
47860;SDS011;33620;52.340;5.984;2023-07-13T06:36:41;28.05;;;11.73;;
47860;SDS011;33620;52.340;5.984;2023-07-13T06:39:08;21.65;;;10.20;;
47860;SDS011;33620;52.340;5.984;2023-07-13T06:41:33;27.45;;;10.73;;
47860;SDS011;33620;52.340;5.984;2023-07-13T06:43:59;27.00;;;11.05;;
47860;SDS011;33620;52.340;5.984;2023-07-13T06:46:25;28.48;;;11.32;;
47860;SDS011;33620;52.340;5.984;2023-07-13T06:48:50;28.45;;;10.05;;
47860;SDS011;33620;52.340;5.984;2023-07-13T06:51:16;26.38;;;10.35;;
47860;SDS011;33620;52.340;5.984;2023-07-13T06:53:42;31.20;;;10.65;;
47860;SDS011;33620;52.340;5.984;2023-07-13T06:56:08;24.52;;;11.50;;
47860;SDS011;33620;52.340;5.984;2023-07-13T06:58:35;30.60;;;11.82;;
47860;SDS011;33620;52.340;5.984;2023-07-13T07:01:01;25.02;;;9.45;;
47860;SDS011;33620;52.340;5.984;2023-07-13T07:03:27;21.27;;;9.88;;
47860;SDS011;33620;52.340;5.984;2023-07-13T07:05:52;25.25;;;10.02;;
47860;SDS011;33620;52.340;5.984;2023-07-13T07:08:18;23.83;;;9.90;;
47860;SDS011;33620;52.340;5.984;2023-07-13T07:10:43;26.27;;;10.02;;
47860;SDS011;33620;52.340;5.984;2023-07-13T07:13:10;28.48;;;9.57;;
47860;SDS011;33620;52.340;5.984;2023-07-13T07:15:35;26.17;;;10.00;;
47860;SDS011;33620;52.340;5.984;2023-07-13T07:18:01;28.80;;;9.35;;
47860;SDS011;33620;52.340;5.984;2023-07-13T07:20:27;24.08;;;9.15;;
47860;SDS011;33620;52.340;5.984;2023-07-13T07:22:53;24.90;;;10.60;;
47860;SDS011;33620;52.340;5.984;2023-07-13T07:25:18;30.45;;;10.32;;
47860;SDS011;33620;52.340;5.984;2023-07-13T07:27:44;24.30;;;9.05;;
47860;SDS011;33620;52.340;5.984;2023-07-13T07:30:10;26.75;;;9.15;;
47860;SDS011;33620;52.340;5.984;2023-07-13T07:32:36;23.83;;;8.75;;
47860;SDS011;33620;52.340;5.984;2023-07-13T07:35:02;25.60;;;10.77;;
47860;SDS011;33620;52.340;5.984;2023-07-13T07:37:27;22.20;;;10.38;;
47860;SDS011;33620;52.340;5.984;2023-07-13T07:39:53;27.45;;;10.07;;
47860;SDS011;33620;52.340;5.984;2023-07-13T07:42:18;25.77;;;9.88;;
47860;SDS011;33620;52.340;5.984;2023-07-13T07:44:43;25.85;;;10.38;;
47860;SDS011;33620;52.340;5.984;2023-07-13T07:47:09;25.25;;;9.93;;
47860;SDS011;33620;52.340;5.984;2023-07-13T07:49:35;23.70;;;9.45;;
47860;SDS011;33620;52.340;5.984;2023-07-13T07:52:01;26.70;;;9.88;;
47860;SDS011;33620;52.340;5.984;2023-07-13T07:54:27;23.30;;;9.00;;
47860;SDS011;33620;52.340;5.984;2023-07-13T07:56:53;28.60;;;9.68;;
47860;SDS011;33620;52.340;5.984;2023-07-13T07:59:18;28.08;;;9.90;;
47860;SDS011;33620;52.340;5.984;2023-07-13T08:01:44;23.85;;;9.95;;
47860;SDS011;33620;52.340;5.984;2023-07-13T08:04:11;25.52;;;9.68;;
47860;SDS011;33620;52.340;5.984;2023-07-13T08:06:37;20.58;;;9.15;;
47860;SDS011;33620;52.340;5.984;2023-07-13T08:09:02;27.58;;;9.35;;
47860;SDS011;33620;52.340;5.984;2023-07-13T08:11:29;24.95;;;9.23;;
47860;SDS011;33620;52.340;5.984;2023-07-13T08:13:55;23.98;;;9.90;;
47860;SDS011;33620;52.340;5.984;2023-07-13T08:16:20;26.30;;;10.68;;
47860;SDS011;33620;52.340;5.984;2023-07-13T08:18:47;30.67;;;10.80;;
47860;SDS011;33620;52.340;5.984;2023-07-13T08:21:12;28.75;;;10.45;;
47860;SDS011;33620;52.340;5.984;2023-07-13T08:23:38;25.77;;;10.57;;
47860;SDS011;33620;52.340;5.984;2023-07-13T08:26:03;23.80;;;10.07;;
47860;SDS011;33620;52.340;5.984;2023-07-13T08:28:29;19.65;;;7.30;;
47860;SDS011;33620;52.340;5.984;2023-07-13T08:30:59;17.42;;;7.75;;
47860;SDS011;33620;52.340;5.984;2023-07-13T08:33:26;25.90;;;9.40;;
47860;SDS011;33620;52.340;5.984;2023-07-13T08:35:51;22.00;;;8.98;;
47860;SDS011;33620;52.340;5.984;2023-07-13T08:38:17;18.48;;;7.68;;
47860;SDS011;33620;52.340;5.984;2023-07-13T08:40:43;17.85;;;6.95;;
47860;SDS011;33620;52.340;5.984;2023-07-13T08:43:13;16.98;;;7.45;;
47860;SDS011;33620;52.340;5.984;2023-07-13T08:45:55;19.27;;;6.97;;
47860;SDS011;33620;52.340;5.984;2023-07-13T08:48:32;17.88;;;7.88;;
47860;SDS011;33620;52.340;5.984;2023-07-13T08:51:09;21.48;;;9.30;;
47860;SDS011;33620;52.340;5.984;2023-07-13T08:53:46;20.30;;;9.40;;
47860;SDS011;33620;52.340;5.984;2023-07-13T08:56:17;25.23;;;10.55;;
47860;SDS011;33620;52.340;5.984;2023-07-13T08:58:47;23.50;;;10.27;;
47860;SDS011;33620;52.340;5.984;2023-07-13T09:01:22;19.42;;;9.55;;
47860;SDS011;33620;52.340;5.984;2023-07-13T09:04:04;22.02;;;8.70;;
47860;SDS011;33620;52.340;5.984;2023-07-13T09:09:33;18.27;;;7.70;;
47860;SDS011;33620;52.340;5.984;2023-07-13T09:12:23;21.20;;;8.25;;
47860;SDS011;33620;52.340;5.984;2023-07-13T09:14:55;21.73;;;7.80;;
47860;SDS011;33620;52.340;5.984;2023-07-13T09:17:31;17.15;;;7.40;;
47860;SDS011;33620;52.340;5.984;2023-07-13T09:20:13;17.15;;;7.55;;
47860;SDS011;33620;52.340;5.984;2023-07-13T09:22:56;20.27;;;7.40;;
47860;SDS011;33620;52.340;5.984;2023-07-13T09:25:30;18.42;;;7.07;;
47860;SDS011;33620;52.340;5.984;2023-07-13T09:33:29;20.00;;;7.18;;
47860;SDS011;33620;52.340;5.984;2023-07-13T09:35:57;18.75;;;7.03;;
47860;SDS011;33620;52.340;5.984;2023-07-13T09:38:24;17.10;;;6.00;;
47860;SDS011;33620;52.340;5.984;2023-07-13T09:44:00;15.90;;;5.40;;
47860;SDS011;33620;52.340;5.984;2023-07-13T09:46:46;15.20;;;5.53;;
47860;SDS011;33620;52.340;5.984;2023-07-13T09:49:17;12.70;;;4.93;;
47860;SDS011;33620;52.340;5.984;2023-07-13T09:51:43;14.50;;;4.95;;
47860;SDS011;33620;52.340;5.984;2023-07-13T09:54:23;21.02;;;5.38;;
47860;SDS011;33620;52.340;5.984;2023-07-13T09:56:57;21.17;;;6.75;;
47860;SDS011;33620;52.340;5.984;2023-07-13T09:59:26;16.90;;;7.53;;
47860;SDS011;33620;52.340;5.984;2023-07-13T10:01:54;13.13;;;5.82;;
47860;SDS011;33620;52.340;5.984;2023-07-13T10:04:26;14.02;;;5.28;;
47860;SDS011;33620;52.340;5.984;2023-07-13T10:07:08;15.50;;;5.05;;
47860;SDS011;33620;52.340;5.984;2023-07-13T10:09:38;13.73;;;4.82;;
47860;SDS011;33620;52.340;5.984;2023-07-13T10:12:04;14.30;;;4.85;;
47860;SDS011;33620;52.340;5.984;2023-07-13T10:14:38;13.32;;;4.10;;
47860;SDS011;33620;52.340;5.984;2023-07-13T10:17:08;9.95;;;4.25;;
47860;SDS011;33620;52.340;5.984;2023-07-13T10:19:37;11.30;;;4.63;;
47860;SDS011;33620;52.340;5.984;2023-07-13T10:24:54;9.75;;;4.30;;
47860;SDS011;33620;52.340;5.984;2023-07-13T10:27:23;10.80;;;4.10;;
47860;SDS011;33620;52.340;5.984;2023-07-13T10:30:04;10.40;;;4.28;;
47860;SDS011;33620;52.340;5.984;2023-07-13T10:32:45;16.88;;;4.18;;
47860;SDS011;33620;52.340;5.984;2023-07-13T10:35:12;8.13;;;3.22;;
47860;SDS011;33620;52.340;5.984;2023-07-13T10:37:43;13.35;;;3.88;;
47860;SDS011;33620;52.340;5.984;2023-07-13T10:40:16;11.23;;;4.07;;
47860;SDS011;33620;52.340;5.984;2023-07-13T10:42:46;10.52;;;3.90;;
47860;SDS011;33620;52.340;5.984;2023-07-13T10:45:15;12.20;;;4.28;;
47860;SDS011;33620;52.340;5.984;2023-07-13T10:47:43;9.88;;;3.78;;
47860;SDS011;33620;52.340;5.984;2023-07-13T10:50:20;11.85;;;4.43;;
47860;SDS011;33620;52.340;5.984;2023-07-13T10:52:52;13.93;;;4.25;;
47860;SDS011;33620;52.340;5.984;2023-07-13T10:55:37;12.07;;;4.53;;
47860;SDS011;33620;52.340;5.984;2023-07-13T11:03:31;14.20;;;4.67;;
47860;SDS011;33620;52.340;5.984;2023-07-13T11:06:13;7.75;;;3.22;;
47860;SDS011;33620;52.340;5.984;2023-07-13T11:11:46;8.05;;;3.08;;
47860;SDS011;33620;52.340;5.984;2023-07-13T11:14:26;6.20;;;2.90;;
47860;SDS011;33620;52.340;5.984;2023-07-13T11:22:42;8.15;;;2.90;;
47860;SDS011;33620;52.340;5.984;2023-07-13T11:27:51;10.55;;;3.30;;
47860;SDS011;33620;52.340;5.984;2023-07-13T11:30:32;8.82;;;3.45;;
47860;SDS011;33620;52.340;5.984;2023-07-13T11:38:37;8.25;;;2.90;;
47860;SDS011;33620;52.340;5.984;2023-07-13T11:41:17;9.88;;;3.42;;
47860;SDS011;33620;52.340;5.984;2023-07-13T11:43:48;7.97;;;3.17;;
47860;SDS011;33620;52.340;5.984;2023-07-13T11:46:26;7.88;;;3.38;;
47860;SDS011;33620;52.340;5.984;2023-07-13T11:48:52;8.70;;;3.28;;
47860;SDS011;33620;52.340;5.984;2023-07-13T11:51:22;8.18;;;3.03;;
47860;SDS011;33620;52.340;5.984;2023-07-13T11:53:57;11.55;;;3.80;;
47860;SDS011;33620;52.340;5.984;2023-07-13T11:56:24;13.27;;;3.60;;
47860;SDS011;33620;52.340;5.984;2023-07-13T11:58:51;11.48;;;3.83;;
47860;SDS011;33620;52.340;5.984;2023-07-13T12:01:27;11.25;;;4.05;;
47860;SDS011;33620;52.340;5.984;2023-07-13T12:03:57;14.57;;;5.13;;
47860;SDS011;33620;52.340;5.984;2023-07-13T12:06:27;12.60;;;4.80;;
47860;SDS011;33620;52.340;5.984;2023-07-13T12:08:58;13.30;;;5.13;;
47860;SDS011;33620;52.340;5.984;2023-07-13T12:11:25;15.02;;;5.30;;
47860;SDS011;33620;52.340;5.984;2023-07-13T12:13:52;16.90;;;6.35;;
47860;SDS011;33620;52.340;5.984;2023-07-13T12:18:57;13.45;;;5.50;;
47860;SDS011;33620;52.340;5.984;2023-07-13T12:21:29;15.27;;;6.20;;
47860;SDS011;33620;52.340;5.984;2023-07-13T12:23:57;13.65;;;5.55;;
47860;SDS011;33620;52.340;5.984;2023-07-13T12:26:23;13.07;;;4.68;;
47860;SDS011;33620;52.340;5.984;2023-07-13T12:28:49;10.00;;;3.80;;
47860;SDS011;33620;52.340;5.984;2023-07-13T12:33:59;12.32;;;4.50;;
47860;SDS011;33620;52.340;5.984;2023-07-13T12:36:32;14.07;;;4.38;;
47860;SDS011;33620;52.340;5.984;2023-07-13T12:39:00;7.60;;;3.55;;
47860;SDS011;33620;52.340;5.984;2023-07-13T12:41:35;8.05;;;3.63;;
47860;SDS011;33620;52.340;5.984;2023-07-13T12:44:01;17.00;;;4.47;;
47860;SDS011;33620;52.340;5.984;2023-07-13T12:46:26;13.00;;;4.13;;
47860;SDS011;33620;52.340;5.984;2023-07-13T12:48:54;11.55;;;4.00;;
47860;SDS011;33620;52.340;5.984;2023-07-13T12:51:26;10.85;;;4.45;;
47860;SDS011;33620;52.340;5.984;2023-07-13T12:53:57;10.45;;;4.05;;
47860;SDS011;33620;52.340;5.984;2023-07-13T12:56:30;9.82;;;3.92;;
47860;SDS011;33620;52.340;5.984;2023-07-13T12:58:58;10.85;;;3.88;;
47860;SDS011;33620;52.340;5.984;2023-07-13T13:01:27;14.32;;;4.63;;
47860;SDS011;33620;52.340;5.984;2023-07-13T13:03:54;16.27;;;4.38;;
47860;SDS011;33620;52.340;5.984;2023-07-13T13:06:22;11.35;;;4.38;;
47860;SDS011;33620;52.340;5.984;2023-07-13T13:08:51;12.02;;;3.95;;
47860;SDS011;33620;52.340;5.984;2023-07-13T13:11:22;9.35;;;3.90;;
47860;SDS011;33620;52.340;5.984;2023-07-13T13:13:48;12.20;;;4.30;;
47860;SDS011;33620;52.340;5.984;2023-07-13T13:18:59;12.32;;;4.20;;
47860;SDS011;33620;52.340;5.984;2023-07-13T13:21:35;14.85;;;4.22;;
47860;SDS011;33620;52.340;5.984;2023-07-13T13:24:00;13.00;;;3.90;;
47860;SDS011;33620;52.340;5.984;2023-07-13T13:26:26;12.20;;;3.63;;
47860;SDS011;33620;52.340;5.984;2023-07-13T13:28:51;10.40;;;3.95;;
47860;SDS011;33620;52.340;5.984;2023-07-13T13:31:17;9.88;;;3.10;;
47860;SDS011;33620;52.340;5.984;2023-07-13T13:33:44;10.52;;;3.50;;
47860;SDS011;33620;52.340;5.984;2023-07-13T13:36:20;9.20;;;3.20;;
47860;SDS011;33620;52.340;5.984;2023-07-13T13:38:48;7.55;;;3.13;;
47860;SDS011;33620;52.340;5.984;2023-07-13T13:41:15;9.25;;;3.10;;
47860;SDS011;33620;52.340;5.984;2023-07-13T13:43:41;5.13;;;2.85;;
47860;SDS011;33620;52.340;5.984;2023-07-13T13:46:15;9.32;;;2.75;;
47860;SDS011;33620;52.340;5.984;2023-07-13T13:48:43;8.60;;;2.83;;
47860;SDS011;33620;52.340;5.984;2023-07-13T13:51:18;9.63;;;2.88;;
47860;SDS011;33620;52.340;5.984;2023-07-13T13:53:46;7.22;;;2.72;;
47860;SDS011;33620;52.340;5.984;2023-07-13T13:56:12;8.73;;;3.08;;
47860;SDS011;33620;52.340;5.984;2023-07-13T13:58:39;10.27;;;2.90;;
47860;SDS011;33620;52.340;5.984;2023-07-13T14:01:08;7.15;;;2.90;;
47860;SDS011;33620;52.340;5.984;2023-07-13T14:03:37;10.60;;;2.88;;
47860;SDS011;33620;52.340;5.984;2023-07-13T14:06:03;8.65;;;2.95;;
47860;SDS011;33620;52.340;5.984;2023-07-13T14:08:28;11.10;;;3.17;;
47860;SDS011;33620;52.340;5.984;2023-07-13T14:10:54;8.82;;;3.00;;
47860;SDS011;33620;52.340;5.984;2023-07-13T14:13:27;7.20;;;2.88;;
47860;SDS011;33620;52.340;5.984;2023-07-13T14:15:56;10.15;;;3.25;;
47860;SDS011;33620;52.340;5.984;2023-07-13T14:18:22;9.07;;;2.78;;
47860;SDS011;33620;52.340;5.984;2023-07-13T14:20:48;8.27;;;2.70;;
47860;SDS011;33620;52.340;5.984;2023-07-13T14:23:15;5.57;;;2.90;;
47860;SDS011;33620;52.340;5.984;2023-07-13T14:25:42;10.07;;;3.40;;
47860;SDS011;33620;52.340;5.984;2023-07-13T14:28:16;7.65;;;3.22;;
47860;SDS011;33620;52.340;5.984;2023-07-13T14:30:43;9.55;;;3.28;;
47860;SDS011;33620;52.340;5.984;2023-07-13T14:33:09;5.63;;;2.85;;
47860;SDS011;33620;52.340;5.984;2023-07-13T14:35:36;9.55;;;3.13;;
47860;SDS011;33620;52.340;5.984;2023-07-13T14:38:02;11.70;;;3.20;;
47860;SDS011;33620;52.340;5.984;2023-07-13T14:40:30;9.98;;;3.13;;
47860;SDS011;33620;52.340;5.984;2023-07-13T14:42:56;11.93;;;3.53;;
47860;SDS011;33620;52.340;5.984;2023-07-13T14:45:22;10.15;;;3.58;;
47860;SDS011;33620;52.340;5.984;2023-07-13T14:47:47;10.18;;;3.22;;
47860;SDS011;33620;52.340;5.984;2023-07-13T14:52:41;7.82;;;3.08;;
47860;SDS011;33620;52.340;5.984;2023-07-13T14:55:11;10.45;;;3.38;;
47860;SDS011;33620;52.340;5.984;2023-07-13T14:57:38;9.05;;;2.83;;
47860;SDS011;33620;52.340;5.984;2023-07-13T15:00:04;10.02;;;3.33;;
47860;SDS011;33620;52.340;5.984;2023-07-13T15:02:37;7.63;;;3.15;;
47860;SDS011;33620;52.340;5.984;2023-07-13T15:05:08;9.45;;;2.95;;
47860;SDS011;33620;52.340;5.984;2023-07-13T15:07:38;10.20;;;3.13;;
47860;SDS011;33620;52.340;5.984;2023-07-13T15:10:17;10.30;;;3.13;;
47860;SDS011;33620;52.340;5.984;2023-07-13T15:12:45;10.15;;;3.55;;
47860;SDS011;33620;52.340;5.984;2023-07-13T15:15:10;7.55;;;3.20;;
47860;SDS011;33620;52.340;5.984;2023-07-13T15:17:37;6.40;;;3.28;;
47860;SDS011;33620;52.340;5.984;2023-07-13T15:20:06;9.07;;;3.00;;
47860;SDS011;33620;52.340;5.984;2023-07-13T15:22:57;8.73;;;2.90;;
47860;SDS011;33620;52.340;5.984;2023-07-13T15:25:24;8.13;;;3.22;;
47860;SDS011;33620;52.340;5.984;2023-07-13T15:27:52;11.48;;;3.58;;
47860;SDS011;33620;52.340;5.984;2023-07-13T15:30:19;6.57;;;3.10;;
47860;SDS011;33620;52.340;5.984;2023-07-13T15:32:45;11.32;;;3.53;;